Time;durP1;ratioP1;P1;durP2;ratioP2;P2;SDS_P1;SDS_P2;PMS_P1;PMS_P2;Temp;Humidity;BMP_temperature;BMP_pressure;BME280_temperature;BME280_humidity;BME280_pressure;Samples;Min_cycle;Max_cycle;Signal;HPM_P1;HPM_P2
2022/06/04 00:03:04;;;;;;;5.00;3.00;;;24.20;52.00;;;;;;221060;1265;25326;-65
2022/06/04 00:08:09;;;;;;;8.20;3.70;;;24.20;52.20;;;;;;220595;1268;22560;-63
2022/06/04 00:18:36;;;;;;;3.90;2.90;;;24.10;51.80;;;;;;220859;1267;25345;-64
2022/06/04 00:23:41;;;;;;;4.40;3.10;;;24.20;52.40;;;;;;220781;1268;25228;-66
2022/06/04 00:28:48;;;;;;;5.70;2.90;;;24.10;52.10;;;;;;220861;1265;22528;-67
2022/06/04 00:33:52;;;;;;;6.70;3.30;;;24.10;52.50;;;;;;220657;1264;24199;-63
2022/06/04 00:38:55;;;;;;;5.30;3.10;;;24.10;52.40;;;;;;220927;1265;25362;-65
2022/06/04 00:44:11;;;;;;;4.50;3.00;;;24.10;52.60;;;;;;221381;1265;22713;-57
2022/06/04 00:49:20;;;;;;;6.40;3.70;;;24.10;52.90;;;;;;221391;1265;24417;-68
2022/06/04 00:54:24;;;;;;;4.10;3.10;;;24.10;52.50;;;;;;221625;1265;22680;-64
2022/06/04 00:59:44;;;;;;;4.80;3.40;;;24.10;52.90;;;;;;221787;1265;25301;-65
2022/06/04 01:05:17;;;;;;;4.90;3.20;;;24.00;52.40;;;;;;221105;1264;25538;-63
2022/06/04 01:10:24;;;;;;;4.70;2.80;;;24.10;53.30;;;;;;221194;1265;23937;-63
2022/06/04 01:15:46;;;;;;;4.00;3.00;;;24.00;53.30;;;;;;221225;1265;24414;-64
2022/06/04 01:21:02;;;;;;;4.20;2.80;;;24.10;53.00;;;;;;221255;1265;22617;-66
2022/06/04 01:26:34;;;;;;;3.80;3.00;;;24.00;53.00;;;;;;221181;1265;24419;-66
2022/06/04 01:31:47;;;;;;;4.80;3.10;;;24.00;53.00;;;;;;220731;1266;22541;-63
2022/06/04 01:36:58;;;;;;;4.60;3.20;;;24.00;53.00;;;;;;220983;1265;22537;-63
2022/06/04 01:42:02;;;;;;;5.00;3.20;;;24.00;53.00;;;;;;221107;1265;25346;-64
2022/06/04 01:47:06;;;;;;;4.10;3.00;;;24.00;53.40;;;;;;221050;1265;22564;-64
2022/06/04 01:52:26;;;;;;;4.00;2.70;;;24.00;53.10;;;;;;221137;1264;23935;-64
2022/06/04 01:57:35;;;;;;;4.60;3.20;;;24.00;53.40;;;;;;221118;1265;23612;-65
2022/06/04 02:02:55;;;;;;;3.90;2.80;;;24.00;53.10;;;;;;220739;1267;22515;-64
2022/06/04 02:08:04;;;;;;;4.00;2.80;;;24.00;53.60;;;;;;221108;1265;24346;-64
2022/06/04 02:13:12;;;;;;;5.10;3.20;;;24.00;53.90;;;;;;221070;1265;24414;-64
2022/06/04 02:18:16;;;;;;;5.60;2.70;;;24.00;54.30;;;;;;221073;1265;22537;-63
2022/06/04 02:23:20;;;;;;;3.70;2.50;;;24.00;54.30;;;;;;221071;1265;26079;-65
2022/06/04 02:28:26;;;;;;;6.10;2.60;;;24.00;54.10;;;;;;221099;1265;22550;-68
2022/06/04 02:33:48;;;;;;;5.90;3.20;;;24.00;54.20;;;;;;220984;1268;22748;-64
2022/06/04 02:39:10;;;;;;;7.00;3.60;;;24.00;53.90;;;;;;220999;1265;25228;-64
2022/06/04 02:44:26;;;;;;;7.60;3.50;;;24.00;53.80;;;;;;221073;1265;24212;-67
2022/06/04 02:49:46;;;;;;;5.90;3.20;;;23.90;54.00;;;;;;220953;1265;22519;-61
2022/06/04 02:54:57;;;;;;;4.90;3.10;;;23.90;54.00;;;;;;221168;1265;26487;-59
2022/06/04 03:00:04;;;;;;;4.50;2.80;;;24.00;54.30;;;;;;220962;1265;22582;-64
2022/06/04 03:05:21;;;;;;;4.70;3.00;;;23.90;54.00;;;;;;220987;1265;25142;-63
2022/06/04 03:10:32;;;;;;;7.60;3.40;;;23.90;54.10;;;;;;220826;1265;22550;-63
2022/06/04 03:15:38;;;;;;;5.80;2.70;;;23.90;54.10;;;;;;221078;1265;22540;-62
2022/06/04 03:20:45;;;;;;;3.80;2.80;;;23.90;54.30;;;;;;221057;1265;22675;-66
2022/06/04 03:25:51;;;;;;;4.10;2.70;;;23.90;54.30;;;;;;221017;1265;22667;-63
2022/06/04 03:30:54;;;;;;;4.80;3.10;;;23.90;54.10;;;;;;220773;1268;22697;-67
2022/06/04 03:35:58;;;;;;;4.30;2.90;;;23.90;54.20;;;;;;220752;1268;22554;-62
2022/06/04 03:41:02;;;;;;;4.80;3.00;;;23.90;54.20;;;;;;220626;1267;22540;-63
2022/06/04 03:46:05;;;;;;;4.40;2.80;;;23.90;54.40;;;;;;220608;1267;25349;-62
2022/06/04 03:51:09;;;;;;;4.60;3.30;;;23.90;54.60;;;;;;221510;1265;24239;-61
2022/06/04 03:56:13;;;;;;;7.30;3.40;;;23.90;54.40;;;;;;220786;1267;22548;-66
2022/06/04 04:01:23;;;;;;;5.70;3.10;;;23.90;54.40;;;;;;220549;1265;24246;-62
2022/06/04 04:06:31;;;;;;;3.90;2.90;;;23.90;54.80;;;;;;221009;1265;22542;-64
2022/06/04 04:11:36;;;;;;;7.30;3.20;;;23.90;54.40;;;;;;220609;1268;22840;-63
2022/06/04 04:16:40;;;;;;;7.30;3.00;;;23.90;54.50;;;;;;221062;1265;25634;-63
2022/06/04 04:21:44;;;;;;;4.90;2.90;;;23.80;54.60;;;;;;221421;1265;25227;-63
2022/06/04 04:26:47;;;;;;;5.40;3.20;;;23.80;54.60;;;;;;221023;1265;22509;-62
2022/06/04 04:31:51;;;;;;;4.60;3.00;;;23.90;54.60;;;;;;221147;1265;22762;-62
2022/06/04 04:36:55;;;;;;;5.60;2.90;;;23.90;54.70;;;;;;221061;1265;25305;-61
2022/06/04 04:42:02;;;;;;;5.10;3.20;;;23.90;54.30;;;;;;221001;1265;24364;-62
2022/06/04 04:47:06;;;;;;;6.40;3.40;;;23.90;54.40;;;;;;221118;1265;25482;-62
2022/06/04 04:52:09;;;;;;;4.10;2.90;;;23.90;54.30;;;;;;221231;1265;22523;-64
2022/06/04 04:57:13;;;;;;;5.70;3.10;;;23.80;54.40;;;;;;221040;1265;24336;-63
2022/06/04 05:02:17;;;;;;;5.40;3.10;;;23.90;54.80;;;;;;220720;1265;24300;-62
2022/06/04 05:07:21;;;;;;;4.30;3.20;;;23.80;54.30;;;;;;220670;1265;22706;-63
2022/06/04 05:12:26;;;;;;;3.50;2.80;;;23.80;54.50;;;;;;221102;1265;25577;-61
2022/06/04 05:17:30;;;;;;;4.10;3.00;;;23.80;54.70;;;;;;221204;1265;24386;-60
2022/06/04 05:22:34;;;;;;;4.00;2.50;;;23.80;54.60;;;;;;220760;1265;24198;-61
2022/06/04 05:27:38;;;;;;;5.50;2.90;;;23.80;54.10;;;;;;221174;1265;22528;-61
2022/06/04 05:32:41;;;;;;;4.20;2.70;;;23.80;55.50;;;;;;221141;1265;22621;-61
2022/06/04 05:37:45;;;;;;;4.60;3.00;;;23.80;55.50;;;;;;221064;1265;24254;-62
2022/06/04 05:42:49;;;;;;;4.60;2.70;;;23.80;54.90;;;;;;220916;1265;24193;-63
2022/06/04 05:47:52;;;;;;;5.70;2.90;;;23.80;54.80;;;;;;221099;1265;22541;-62
2022/06/04 05:52:56;;;;;;;6.70;2.60;;;23.70;54.80;;;;;;221064;1265;22720;-62
2022/06/04 05:58:00;;;;;;;4.30;2.90;;;23.80;54.70;;;;;;221003;1265;25533;-61
2022/06/04 06:03:04;;;;;;;7.10;3.50;;;23.80;54.70;;;;;;220969;1268;22700;-63
2022/06/04 06:08:08;;;;;;;4.60;2.30;;;23.80;54.70;;;;;;221104;1265;26635;-62
2022/06/04 06:13:12;;;;;;;5.60;2.70;;;23.80;54.90;;;;;;221116;1265;24277;-62
2022/06/04 06:18:18;;;;;;;5.20;2.90;;;23.80;54.80;;;;;;221068;1265;25458;-62
2022/06/04 06:23:22;;;;;;;6.00;3.00;;;23.70;55.10;;;;;;221064;1265;22585;-62
2022/06/04 06:28:26;;;;;;;3.90;2.70;;;23.80;54.80;;;;;;220845;1265;24246;-64
2022/06/04 06:33:30;;;;;;;6.10;3.10;;;23.80;54.80;;;;;;220850;1265;22522;-61
2022/06/04 06:38:34;;;;;;;5.60;2.90;;;23.80;54.70;;;;;;220908;1265;22665;-61
2022/06/04 06:44:08;;;;;;;;;;;;;;;;;;;;;
2022/06/04 06:49:27;;;;;;;6.90;3.00;;;23.80;54.80;;;;;;220802;1268;22538;-61
2022/06/04 06:54:39;;;;;;;5.80;2.80;;;23.80;55.00;;;;;;216033;1265;24303;-62
2022/06/04 06:59:49;;;;;;;6.00;3.00;;;23.80;54.90;;;;;;220833;1270;24320;-62
2022/06/04 07:05:01;;;;;;;4.00;2.60;;;23.90;55.00;;;;;;221059;1265;22580;-61
2022/06/04 07:10:06;;;;;;;5.70;3.00;;;23.80;55.00;;;;;;220889;1265;22564;-63
2022/06/04 07:15:12;;;;;;;5.50;3.50;;;23.90;55.00;;;;;;220973;1265;22546;-61
2022/06/04 07:20:18;;;;;;;6.30;2.90;;;23.90;56.00;;;;;;220547;1268;22690;-59
2022/06/04 07:25:25;;;;;;;5.60;3.10;;;23.90;55.90;;;;;;220438;1269;23003;-60
2022/06/04 07:30:32;;;;;;;15.70;4.40;;;23.90;55.70;;;;;;220965;1265;24208;-61
2022/06/04 07:35:36;;;;;;;14.40;5.30;;;23.90;60.00;;;;;;221036;1265;22692;-60
2022/06/04 07:40:46;;;;;;;11.60;5.90;;;23.80;61.30;;;;;;220764;1265;23884;-61
2022/06/04 07:45:52;;;;;;;9.60;6.00;;;23.20;62.70;;;;;;220602;1265;22550;-60
2022/06/04 07:51:04;;;;;;;12.40;6.70;;;22.80;64.60;;;;;;220613;1265;24208;-59
2022/06/04 07:56:19;;;;;;;10.50;5.50;;;22.70;64.90;;;;;;220800;1265;25499;-58
2022/06/04 08:01:28;;;;;;;11.20;5.40;;;22.80;64.30;;;;;;220596;1270;22547;-57
2022/06/04 08:06:51;;;;;;;9.10;5.00;;;23.10;63.20;;;;;;220213;1265;24460;-58
2022/06/04 08:12:17;;;;;;;8.20;5.20;;;23.30;62.60;;;;;;220766;1265;25405;-61
2022/06/04 08:17:25;;;;;;;9.40;5.90;;;23.40;62.60;;;;;;220480;1265;22538;-60
2022/06/04 08:22:31;;;;;;;9.80;6.10;;;23.40;63.20;;;;;;220521;1265;24571;-58
2022/06/04 08:27:38;;;;;;;10.40;5.50;;;23.40;63.10;;;;;;220767;1265;22551;-58
2022/06/04 08:32:42;;;;;;;13.80;5.70;;;23.40;63.40;;;;;;220960;1265;23042;-60
2022/06/04 08:37:50;;;;;;;8.80;5.70;;;23.40;63.50;;;;;;220639;1265;23018;-61
2022/06/04 08:43:09;;;;;;;10.50;6.20;;;23.50;63.20;;;;;;220898;1265;22600;-63
2022/06/04 08:48:20;;;;;;;8.00;5.20;;;23.30;64.10;;;;;;220768;1267;23002;-62
2022/06/04 08:53:29;;;;;;;13.50;5.50;;;23.30;64.00;;;;;;220934;1265;25593;-60
2022/06/04 08:58:44;;;;;;;11.60;5.80;;;23.30;64.50;;;;;;221193;1265;26708;-63
2022/06/04 09:04:10;;;;;;;13.90;5.60;;;23.30;64.70;;;;;;221076;1265;22543;-61
2022/06/04 09:09:20;;;;;;;17.50;5.70;;;23.10;64.90;;;;;;220981;1265;22764;-62
2022/06/04 09:14:42;;;;;;;15.70;5.90;;;23.20;64.00;;;;;;221099;1265;22580;-62
2022/06/04 09:19:56;;;;;;;10.50;5.60;;;23.00;64.50;;;;;;221070;1265;24457;-59
2022/06/04 09:25:14;;;;;;;;;;;22.90;64.60;;;;;;220804;1265;24288;-63
2022/06/04 09:30:32;;;;;;;8.60;4.80;;;23.00;62.70;;;;;;220766;1265;22521;-64
2022/06/04 09:35:40;;;;;;;6.90;4.90;;;22.70;63.20;;;;;;220884;1265;22551;-62
2022/06/04 09:40:44;;;;;;;8.70;5.30;;;22.80;63.50;;;;;;220882;1265;22560;-63
2022/06/04 09:45:58;;;;;;;9.10;5.70;;;22.60;65.00;;;;;;220470;1267;23142;-63
2022/06/04 09:51:06;;;;;;;19.70;5.80;;;22.60;64.80;;;;;;220822;1265;25605;-63
2022/06/04 09:56:32;;;;;;;12.10;6.20;;;22.50;66.10;;;;;;220944;1265;25277;-65
2022/06/04 10:01:36;;;;;;;12.50;5.60;;;22.70;65.60;;;;;;220697;1265;22590;-60
2022/06/04 10:06:41;;;;;;;8.40;5.80;;;22.90;65.00;;;;;;220842;1265;22554;-63
2022/06/04 10:12:07;;;;;;;8.60;5.00;;;22.90;65.50;;;;;;220810;1265;26179;-63
2022/06/04 10:17:20;;;;;;;8.80;5.00;;;22.90;66.10;;;;;;220845;1265;22545;-65
2022/06/04 10:22:24;;;;;;;6.50;5.10;;;23.10;65.50;;;;;;220419;1265;23932;-63
2022/06/04 10:27:28;;;;;;;11.80;5.40;;;23.30;65.20;;;;;;220821;1265;22544;-62
2022/06/04 10:32:55;;;;;;;8.60;5.50;;;23.40;64.10;;;;;;220555;1265;22564;-59
2022/06/04 10:38:06;;;;;;;8.20;4.60;;;23.50;63.80;;;;;;220333;1265;22869;-61
2022/06/04 10:43:27;;;;;;;8.20;4.70;;;23.60;63.10;;;;;;220676;1265;25325;-64
2022/06/04 10:49:03;;;;;;;15.00;5.10;;;23.60;62.90;;;;;;220741;1265;22570;-60
2022/06/04 10:54:32;;;;;;;11.90;4.80;;;23.80;62.70;;;;;;220859;1265;25177;-61
2022/06/04 11:00:12;;;;;;;29.60;9.60;;;24.00;62.00;;;;;;220676;1265;24233;-59
2022/06/04 11:05:24;;;;;;;47.30;13.00;;;24.10;63.80;;;;;;220834;1265;24811;-58
2022/06/04 11:10:39;;;;;;;21.80;8.30;;;24.20;64.20;;;;;;220849;1265;22812;-58
2022/06/04 11:15:51;;;;;;;17.30;6.20;;;24.30;61.90;;;;;;220803;1265;22690;-59
2022/06/04 11:21:22;;;;;;;13.70;5.60;;;24.30;61.40;;;;;;220623;1265;24211;-62
2022/06/04 11:26:33;;;;;;;8.90;4.60;;;24.40;61.40;;;;;;220644;1265;22611;-61
2022/06/04 11:32:05;;;;;;;13.50;5.00;;;24.50;60.90;;;;;;220613;1265;25161;-59
2022/06/04 11:37:36;;;;;;;13.00;4.80;;;24.50;60.30;;;;;;220298;1265;22538;-62
2022/06/04 11:42:51;;;;;;;8.60;4.30;;;24.50;59.80;;;;;;220751;1265;22684;-61
2022/06/04 11:48:07;;;;;;;7.30;3.80;;;24.60;59.50;;;;;;220862;1265;25088;-64
2022/06/04 11:53:33;;;;;;;9.10;4.00;;;24.60;59.90;;;;;;221015;1265;22557;-60
2022/06/04 11:59:22;;;;;;;7.00;3.60;;;24.60;59.90;;;;;;220817;1265;24239;-61
2022/06/04 12:04:37;;;;;;;8.20;4.20;;;24.60;59.20;;;;;;220050;1272;22657;-62
2022/06/04 12:10:20;;;;;;;11.20;5.40;;;24.70;59.00;;;;;;220828;1265;22558;-63
2022/06/04 12:15:39;;;;;;;9.50;5.10;;;24.60;59.90;;;;;;220666;1265;25538;-64
2022/06/04 12:26:05;;;;;;;6.60;4.50;;;24.50;60.00;;;;;;221072;1265;25374;-64
2022/06/04 12:31:09;;;;;;;7.70;4.20;;;24.50;58.90;;;;;;220998;1265;22707;-64
2022/06/04 12:36:24;;;;;;;7.70;4.60;;;24.40;58.80;;;;;;220892;1265;24256;-61
2022/06/04 12:41:59;;;;;;;8.10;3.80;;;24.40;58.80;;;;;;221069;1265;24250;-63
2022/06/04 12:47:20;;;;;;;5.10;4.00;;;24.30;58.40;;;;;;220811;1265;22545;-64
2022/06/04 12:52:26;;;;;;;4.60;3.60;;;24.30;57.90;;;;;;221181;1265;25388;-64
2022/06/04 12:57:50;;;;;;;5.20;4.10;;;24.30;57.80;;;;;;221174;1265;25408;-61
2022/06/04 13:03:09;;;;;;;4.50;3.50;;;24.30;57.80;;;;;;221233;1265;22567;-65
2022/06/04 13:08:25;;;;;;;6.00;3.90;;;24.10;57.40;;;;;;220839;1265;24305;-64
2022/06/04 13:13:38;;;;;;;4.60;4.00;;;24.10;57.10;;;;;;221110;1265;25339;-62
2022/06/04 13:18:43;;;;;;;5.10;3.90;;;24.10;58.50;;;;;;221014;1264;22573;-64
2022/06/04 13:23:55;;;;;;;5.70;3.80;;;24.10;58.30;;;;;;220976;1265;22688;-63
2022/06/04 13:29:03;;;;;;;8.60;4.30;;;24.00;58.50;;;;;;221008;1265;22600;-63
2022/06/04 13:34:13;;;;;;;5.90;3.70;;;24.00;59.50;;;;;;220928;1265;22553;-62
2022/06/04 13:39:19;;;;;;;12.00;4.50;;;24.10;59.60;;;;;;220900;1265;22548;-61
2022/06/04 13:44:28;;;;;;;6.20;3.60;;;24.10;59.40;;;;;;220986;1264;22482;-63
2022/06/04 13:49:33;;;;;;;5.30;3.80;;;24.10;59.50;;;;;;221088;1265;25448;-61
2022/06/04 13:55:07;;;;;;;8.50;4.40;;;24.20;59.90;;;;;;221202;1265;25339;-63
2022/06/04 14:00:23;;;;;;;6.40;3.40;;;24.30;61.20;;;;;;220904;1265;22708;-61
2022/06/04 14:05:47;;;;;;;8.60;4.20;;;24.30;60.70;;;;;;220925;1265;25360;-63
2022/06/04 14:11:08;;;;;;;7.30;4.10;;;24.40;61.60;;;;;;220956;1265;22975;-66
2022/06/04 14:16:35;;;;;;;6.60;3.60;;;24.40;61.80;;;;;;221025;1265;24246;-62
2022/06/04 14:22:18;;;;;;;8.30;4.40;;;24.40;61.80;;;;;;220936;1265;22703;-64
2022/06/04 14:27:34;;;;;;;8.00;4.50;;;24.40;62.30;;;;;;220958;1265;25235;-63
2022/06/04 14:32:42;;;;;;;9.00;4.60;;;24.50;62.30;;;;;;220946;1265;22557;-63
2022/06/04 14:38:00;;;;;;;11.70;4.40;;;24.40;62.10;;;;;;221024;1265;22563;-65
2022/06/04 14:43:46;;;;;;;6.30;5.00;;;24.30;62.20;;;;;;220924;1265;25480;-64
2022/06/04 14:48:56;;;;;;;26.90;9.10;;;24.40;61.90;;;;;;220996;1265;22909;-66
2022/06/04 14:54:05;;;;;;;47.10;13.70;;;24.30;62.80;;;;;;220865;1265;25406;-62
2022/06/04 14:59:18;;;;;;;36.80;12.20;;;24.30;63.60;;;;;;220857;1265;24358;-63
2022/06/04 15:04:59;;;;;;;32.30;8.50;;;24.30;63.80;;;;;;220936;1265;25353;-64
2022/06/04 15:10:28;;;;;;;22.20;8.70;;;24.40;64.70;;;;;;220902;1264;22518;-63
2022/06/04 15:15:49;;;;;;;19.00;8.10;;;24.50;65.20;;;;;;220960;1265;26003;-63
2022/06/04 15:21:09;;;;;;;22.20;7.70;;;24.50;64.50;;;;;;220537;1267;24264;-64
2022/06/04 15:26:28;;;;;;;16.70;7.50;;;24.60;65.50;;;;;;221077;1265;22577;-65
2022/06/04 15:37:40;;;;;;;16.30;6.90;;;24.60;65.30;;;;;;220937;1265;22579;-63
2022/06/04 15:43:07;;;;;;;12.70;6.60;;;24.70;64.70;;;;;;220721;1267;24316;-64
2022/06/04 15:48:15;;;;;;;15.50;7.20;;;24.70;64.70;;;;;;221084;1265;24319;-64
2022/06/04 15:58:52;;;;;;;15.40;7.10;;;24.70;64.50;;;;;;220845;1265;22561;-62
2022/06/04 16:04:18;;;;;;;16.40;6.80;;;24.70;64.40;;;;;;220773;1265;22580;-63
2022/06/04 16:09:27;;;;;;;16.20;6.70;;;24.70;64.30;;;;;;221149;1264;24628;-64
2022/06/04 16:15:34;;;;;;;13.90;6.50;;;24.70;64.00;;;;;;220990;1265;24405;-60
2022/06/04 16:21:32;;;;;;;18.70;6.30;;;24.70;63.90;;;;;;220775;1265;24308;-60
2022/06/04 16:27:26;;;;;;;13.70;5.60;;;24.80;64.00;;;;;;221106;1265;25259;-61
2022/06/04 16:33:08;;;;;;;16.00;6.30;;;24.80;64.00;;;;;;221057;1265;24565;-59
2022/06/04 16:38:59;;;;;;;13.10;6.40;;;24.70;63.80;;;;;;221075;1265;24373;-64
2022/06/04 16:44:11;;;;;;;12.80;5.90;;;24.70;63.90;;;;;;220930;1265;25499;-63
2022/06/04 16:49:48;;;;;;;8.10;5.70;;;24.60;63.60;;;;;;220757;1265;22720;-63
2022/06/04 16:55:21;;;;;;;8.90;6.40;;;24.50;63.80;;;;;;220978;1265;24285;-63
2022/06/04 17:00:48;;;;;;;17.30;5.60;;;24.50;64.40;;;;;;221240;1265;26330;-63
2022/06/04 17:06:17;;;;;;;;;;;24.50;64.60;;;;;;221174;1265;24437;-64
2022/06/04 17:11:51;;;;;;;7.80;6.10;;;24.40;64.50;;;;;;220992;1265;25301;-62
2022/06/04 17:17:34;;;;;;;7.70;5.40;;;24.40;65.00;;;;;;221062;1265;25444;-62
2022/06/04 17:22:55;;;;;;;8.60;5.90;;;24.30;65.60;;;;;;220824;1265;24279;-62
2022/06/04 17:29:00;;;;;;;10.40;5.10;;;24.30;64.80;;;;;;221210;1265;24196;-62
2022/06/04 17:34:34;;;;;;;7.70;5.50;;;24.40;64.70;;;;;;221027;1264;22850;-64
2022/06/04 17:40:07;;;;;;;6.00;5.20;;;24.40;64.60;;;;;;221175;1265;22553;-64
2022/06/04 17:45:15;;;;;;;7.40;5.50;;;24.40;64.20;;;;;;220530;1265;22521;-64
2022/06/04 17:50:28;;;;;;;;;;;24.40;64.30;;;;;;220988;1264;25464;-64
2022/06/04 17:55:58;;;;;;;7.40;5.60;;;24.40;64.10;;;;;;221099;1265;24389;-63
2022/06/04 18:01:37;;;;;;;7.80;5.90;;;24.30;64.40;;;;;;220848;1264;24215;-63
2022/06/04 18:06:48;;;;;;;7.30;5.60;;;24.30;64.70;;;;;;221283;1265;25423;-61
2022/06/04 18:12:03;;;;;;;8.50;5.80;;;24.30;64.60;;;;;;221074;1265;24053;-65
2022/06/04 18:17:14;;;;;;;6.50;5.80;;;24.30;65.30;;;;;;221168;1265;25541;-63
2022/06/04 18:22:30;;;;;;;8.30;6.00;;;24.20;65.20;;;;;;220965;1265;24405;-65
2022/06/04 18:27:34;;;;;;;6.40;5.20;;;24.20;65.20;;;;;;221161;1265;25423;-64
2022/06/04 18:32:40;;;;;;;8.40;5.40;;;24.30;65.20;;;;;;221090;1265;25361;-62
2022/06/04 18:37:46;;;;;;;6.90;5.50;;;24.30;65.10;;;;;;221217;1265;22607;-66
2022/06/04 18:59:12;;;;;;;9.60;7.00;;;24.10;65.90;;;;;;221040;1264;25415;-62
2022/06/04 19:04:17;;;;;;;8.10;5.90;;;24.20;65.70;;;;;;221468;1264;24942;-64
2022/06/04 19:09:21;;;;;;;8.80;6.20;;;24.20;65.60;;;;;;220994;1265;22541;-62
2022/06/04 19:14:27;;;;;;;9.90;7.10;;;24.20;65.60;;;;;;221155;1265;22522;-61
2022/06/04 19:19:33;;;;;;;10.10;7.30;;;24.20;65.80;;;;;;221241;1265;25284;-62
2022/06/04 19:24:40;;;;;;;11.10;6.30;;;24.30;65.90;;;;;;220941;1265;22554;-62
2022/06/04 19:29:57;;;;;;;18.40;8.00;;;24.30;65.90;;;;;;221130;1265;22601;-64
2022/06/04 19:35:22;;;;;;;15.70;6.90;;;24.40;65.20;;;;;;221030;1265;22544;-61
2022/06/04 19:40:27;;;;;;;19.70;7.80;;;24.50;65.60;;;;;;220858;1267;22554;-62
2022/06/04 19:45:48;;;;;;;24.40;8.10;;;24.50;65.50;;;;;;220426;1267;22683;-61
2022/06/04 19:50:52;;;;;;;14.50;8.10;;;24.50;65.60;;;;;;220988;1267;22545;-62
2022/06/04 19:56:08;;;;;;;15.80;9.50;;;24.30;66.40;;;;;;220884;1265;22554;-64
2022/06/04 20:01:17;;;;;;;12.50;8.60;;;24.20;66.80;;;;;;221070;1268;24269;-64
2022/06/04 20:06:28;;;;;;;16.10;9.60;;;24.10;66.30;;;;;;220778;1267;22690;-61
2022/06/04 20:11:33;;;;;;;14.90;9.10;;;24.10;66.50;;;;;;220848;1267;22769;-65
2022/06/04 20:16:44;;;;;;;12.80;9.00;;;24.00;66.60;;;;;;221060;1267;22618;-64
2022/06/04 20:21:50;;;;;;;12.80;9.60;;;24.00;66.90;;;;;;220450;1267;25494;-62
2022/06/04 20:26:56;;;;;;;10.70;9.60;;;23.90;67.00;;;;;;220651;1267;24347;-63
2022/06/04 20:32:01;;;;;;;13.50;9.50;;;23.90;67.90;;;;;;221019;1267;22630;-65
2022/06/04 20:37:05;;;;;;;15.40;10.10;;;23.90;67.40;;;;;;220894;1267;22693;-66
2022/06/04 20:42:10;;;;;;;15.90;8.90;;;24.00;68.60;;;;;;220764;1267;25672;-61
2022/06/04 20:47:15;;;;;;;12.10;8.90;;;24.10;68.80;;;;;;220701;1267;22686;-62
2022/06/04 20:52:19;;;;;;;15.40;9.00;;;24.10;67.60;;;;;;220685;1265;25442;-63
2022/06/04 20:57:23;;;;;;;12.70;8.70;;;24.10;68.50;;;;;;220520;1267;22585;-64
2022/06/04 21:02:30;;;;;;;15.70;8.40;;;23.90;68.00;;;;;;220897;1265;24364;-64
2022/06/04 21:07:34;;;;;;;16.00;8.20;;;24.00;68.30;;;;;;220535;1267;24371;-65
2022/06/04 21:12:39;;;;;;;15.30;8.60;;;24.10;68.40;;;;;;220623;1267;25970;-63
2022/06/04 21:17:46;;;;;;;17.80;8.60;;;24.20;69.50;;;;;;220949;1267;22684;-64
2022/06/04 21:22:51;;;;;;;11.80;7.70;;;24.20;70.10;;;;;;220670;1267;24481;-66
2022/06/04 21:27:57;;;;;;;12.50;7.70;;;24.30;68.10;;;;;;221325;1265;22561;-65
2022/06/04 21:33:04;;;;;;;20.40;8.80;;;24.30;67.70;;;;;;221281;1265;22739;-64
2022/06/04 21:38:12;;;;;;;17.30;8.50;;;24.30;68.70;;;;;;220965;1265;24199;-64
2022/06/04 21:43:20;;;;;;;15.80;8.80;;;24.30;69.90;;;;;;220684;1265;26735;-64
2022/06/04 21:48:24;;;;;;;13.10;8.50;;;24.30;71.80;;;;;;220840;1267;22730;-67
2022/06/04 21:53:30;;;;;;;16.30;8.10;;;24.30;70.60;;;;;;220904;1268;25156;-64
2022/06/04 21:58:38;;;;;;;15.30;7.70;;;24.30;68.60;;;;;;220703;1264;25462;-64
2022/06/04 22:04:02;;;;;;;12.60;8.00;;;24.30;68.10;;;;;;219168;1275;24420;-64
2022/06/04 22:09:11;;;;;;;14.80;8.00;;;24.30;68.20;;;;;;219751;1273;22550;-65
2022/06/04 22:14:16;;;;;;;16.60;7.40;;;24.30;68.30;;;;;;219641;1273;24226;-63
2022/06/04 22:19:21;;;;;;;10.30;7.30;;;24.30;68.40;;;;;;220041;1273;22537;-63
2022/06/04 22:24:33;;;;;;;9.30;7.00;;;24.30;68.30;;;;;;219867;1273;22708;-64
2022/06/04 22:29:41;;;;;;;16.00;8.50;;;24.20;68.20;;;;;;219697;1273;25227;-65
2022/06/04 22:34:48;;;;;;;13.20;7.70;;;24.30;70.30;;;;;;219636;1273;24301;-64
2022/06/04 22:39:55;;;;;;;18.80;7.80;;;24.30;71.10;;;;;;219539;1268;22682;-59
2022/06/04 22:44:58;;;;;;;14.80;8.10;;;24.30;71.20;;;;;;220914;1265;25216;-60
2022/06/04 22:50:03;;;;;;;12.00;7.10;;;24.30;70.70;;;;;;220374;1267;25239;-59
2022/06/04 22:55:07;;;;;;;13.40;7.10;;;24.40;70.20;;;;;;220515;1267;25228;-61
2022/06/04 23:00:15;;;;;;;14.90;7.50;;;24.40;70.00;;;;;;220419;1267;22545;-62
2022/06/04 23:05:20;;;;;;;11.10;7.10;;;24.40;69.20;;;;;;220734;1265;22535;-61
2022/06/04 23:21:10;;;;;;;12.60;7.00;;;24.40;68.50;;;;;;220407;1268;22539;-60
2022/06/04 23:26:21;;;;;;;11.40;7.00;;;24.30;68.90;;;;;;220668;1265;22555;-63
2022/06/04 23:31:25;;;;;;;8.40;6.50;;;24.30;68.50;;;;;;220867;1265;22650;-62
2022/06/04 23:36:29;;;;;;;10.80;7.10;;;24.30;68.20;;;;;;220935;1265;23395;-62
2022/06/04 23:46:55;;;;;;;8.20;6.10;;;24.30;68.30;;;;;;220941;1265;22566;-64
2022/06/04 23:51:59;;;;;;;10.50;6.60;;;24.30;67.70;;;;;;220846;1265;24253;-61
2022/06/04 23:57:03;;;;;;;10.90;6.70;;;24.30;67.70;;;;;;221006;1267;22552;-60
